MDT,Max TemperatureF,Mean TemperatureF,Min TemperatureF,Max Dew PointF,MeanDew PointF,Min DewpointF,Max Humidity, Mean Humidity, Min Humidity, Max Sea Level PressureIn, Mean Sea Level PressureIn, Min Sea Level PressureIn, Max VisibilityMiles, Mean VisibilityMiles, Min VisibilityMiles, Max Wind SpeedMPH, Mean Wind SpeedMPH, Max Gust SpeedMPH,PrecipitationIn, CloudCover, Events, WindDirDegrees
2013-7-1,91,70,48,46,41,33,77,46,14,30.12,30.04,29.98,10,10,10,16,7,21,0.00,0,,46
2013-7-2,90,71,51,45,40,32,66,40,13,30.08,30.00,29.91,10,10,10,16,5,22,0.00,1,,34
2013-7-3,90,68,45,54,42,36,78,47,16,30.19,29.98,29.88,10,10,9,23,5,30,0.03,2,Rain-Thunderstorm,73
2013-7-4,92,72,51,55,47,38,80,48,16,30.16,29.88,29.76,10,10,10,15,4,23,T,2,Rain-Thunderstorm,76
2013-7-5,89,72,54,53,50,45,83,54,25,30.02,29.78,29.70,10,10,10,18,5,23,T,3,Thunderstorm,55
2013-7-6,88,73,57,51,46,41,67,44,21,30.03,29.85,29.77,10,10,10,21,5,26,T,3,Thunderstorm,93
2013-7-7,90,70,50,53,45,39,83,50,17,30.00,29.93,29.87,10,10,10,13,6,18,T,0,,268
2013-7-8,91,72,52,51,44,34,72,44,15,30.20,30.00,29.93,10,10,10,26,8,35,T,1,,258
2013-7-9,95,72,49,46,41,30,77,44,11,30.28,30.06,29.98,10,10,10,17,4,21,0.00,0,Thunderstorm,125
2013-7-10,96,73,49,45,38,27,74,41,8,30.07,29.96,29.85,10,10,10,17,3,24,0.00,0,,307
2013-7-11,96,71,45,51,40,36,71,42,13,29.94,29.85,29.75,10,10,10,35,8,46,T,1,Rain,241
2013-7-12,92,73,53,57,52,41,86,53,20,30.18,29.92,29.81,10,10,9,26,7,36,0.01,3,Rain-Thunderstorm,300
2013-7-13,85,71,56,57,52,47,84,57,30,30.24,30.01,29.94,10,10,10,21,5,26,0.01,3,Rain-Thunderstorm,292
2013-7-14,91,73,55,53,48,39,83,50,17,30.11,30.01,29.91,10,10,10,16,4,21,0.00,1,,80
2013-7-15,95,76,57,50,47,41,64,41,17,29.97,29.88,29.78,10,10,10,15,6,21,0.00,0,,76
2013-7-16,94,74,53,51,47,41,77,49,20,30.08,29.90,29.82,10,10,10,13,4,17,0.00,0,Thunderstorm,53
2013-7-17,93,73,53,50,46,40,77,46,15,30.08,30.01,29.92,10,10,10,29,5,35,0.00,1,,298
2013-7-18,92,76,59,54,49,45,67,45,23,30.20,30.03,29.93,10,10,10,24,6,36,0.00,2,,150
2013-7-19,93,73,53,52,44,31,77,44,11,30.06,29.93,29.81,10,10,10,17,4,23,0.00,0,,63
2013-7-20,93,69,45,46,34,23,77,43,9,29.95,29.85,29.75,10,10,10,9,4,13,0.00,0,,283
2013-7-21,96,70,44,39,30,22,70,39,7,29.90,29.82,29.75,10,10,10,29,6,49,0.00,0,,308
2013-7-22,96,72,48,37,26,14,56,31,5,30.11,29.87,29.80,10,10,10,18,5,23,0.00,0,,305
2013-7-23,96,69,42,35,26,1,58,31,3,30.01,29.95,29.88,10,10,10,17,3,22,0.00,0,,31
2013-7-24,92,69,45,51,38,30,60,37,14,30.04,29.97,29.93,10,10,10,29,6,36,T,3,Rain,255
2013-7-25,85,69,53,55,47,39,86,55,23,30.23,30.04,29.93,10,10,10,23,5,30,T,2,Rain-Thunderstorm,63
2013-7-26,89,70,51,47,40,30,72,42,12,30.18,30.07,29.97,10,10,10,14,2,17,T,0,,86
2013-7-27,89,68,47,56,44,36,68,43,17,30.14,29.96,29.85,10,10,5,23,7,32,0.00,4,Rain-Thunderstorm,235
2013-7-28,81,69,56,55,50,45,78,54,30,30.12,29.89,29.80,10,10,8,21,5,29,0.00,5,Rain-Thunderstorm,212
2013-7-29,79,68,56,54,49,45,77,56,35,30.32,30.05,29.89,10,10,4,21,5,31,0.00,6,Rain-Thunderstorm,114
2013-7-30,86,68,49,52,46,36,86,52,17,30.34,30.16,30.09,10,10,10,22,5,26,T,3,Rain,311
2013-7-31,90,69,47,47,42,34,86,50,14,30.22,30.11,29.99,10,10,10,22,6,29,0.00,0,,159